EAG2310 SBGR-SBCN
Flight info
| Callsign | EAG2310 |
|---|---|
| Flight time | 1h 1m |
| Altitude | 36000 |
| Route | GERTU UZ25 PUGOR/N0453F380 UZ25 CORVO DCT OBLAV |
| Aircraft | B737/M-SDE2E3FGHIRWXY/LB1 |
Departure
| Time | 2026-05-08 21:33 |
|---|---|
| Airport | São Paulo/Guarulhos–Governor André Franco Montoro International Airport (SBGR) |
Arrival
| Time | 2026-05-08 22:34 |
|---|---|
| Airport | Nelson Ribeiro Guimarães Airport (SBCN) |
| Time | Latitude | Longitude | Altitude | Speed | Heading |
|---|---|---|---|---|---|
| 2026-05-08 21:11 | -23.42839 | -46.48062 | 2460 ft | 0 kts | 85° |
| 2026-05-08 21:24 | -23.42839 | -46.48063 | 2460 ft | 1 kts | 85° |
| 2026-05-08 21:24 | -23.42843 | -46.48089 | 2460 ft | 4 kts | 72° |
| 2026-05-08 21:25 | -23.42851 | -46.48116 | 2460 ft | 4 kts | 91° |
| 2026-05-08 21:25 | -23.42845 | -46.48138 | 2460 ft | 4 kts | 126° |
| 2026-05-08 21:25 | -23.42825 | -46.48154 | 2462 ft | 4 kts | 169° |
| 2026-05-08 21:25 | -23.42806 | -46.48157 | 2466 ft | 0 kts | 174° |
| 2026-05-08 21:26 | -23.42830 | -46.48155 | 2460 ft | 4 kts | 174° |
| 2026-05-08 21:26 | -23.42844 | -46.48153 | 2460 ft | 0 kts | 174° |
| 2026-05-08 21:28 | -23.42852 | -46.48152 | 2463 ft | 4 kts | 174° |
| 2026-05-08 21:28 | -23.42895 | -46.48148 | 2460 ft | 7 kts | 175° |
| 2026-05-08 21:28 | -23.42944 | -46.48144 | 2466 ft | 7 kts | 175° |
| 2026-05-08 21:29 | -23.42994 | -46.48138 | 2460 ft | 8 kts | 174° |
| 2026-05-08 21:29 | -23.43044 | -46.48159 | 2460 ft | 9 kts | 252° |
| 2026-05-08 21:29 | -23.43059 | -46.48293 | 2460 ft | 22 kts | 265° |
| 2026-05-08 21:29 | -23.43084 | -46.48420 | 2460 ft | 11 kts | 216° |
| 2026-05-08 21:30 | -23.43159 | -46.48412 | 2462 ft | 12 kts | 164° |
| 2026-05-08 21:30 | -23.43250 | -46.48383 | 2464 ft | 14 kts | 162° |
| 2026-05-08 21:30 | -23.43303 | -46.48366 | 2461 ft | 0 kts | 165° |
| 2026-05-08 21:32 | -23.43323 | -46.48359 | 2461 ft | 6 kts | 163° |
| 2026-05-08 21:32 | -23.43372 | -46.48343 | 2462 ft | 9 kts | 164° |
| 2026-05-08 21:32 | -23.43418 | -46.48299 | 2462 ft | 12 kts | 82° |
| 2026-05-08 21:32 | -23.43404 | -46.48244 | 2459 ft | 0 kts | 74° |
| 2026-05-08 21:33 | -23.43395 | -46.48208 | 2463 ft | 32 kts | 73° |
| 2026-05-08 21:33 | -23.43236 | -46.47622 | 2459 ft | 126 kts | 73° |
| 2026-05-08 21:33 | -23.42906 | -46.46444 | 2576 ft | 192 kts | 73° |
| 2026-05-08 21:33 | -23.42567 | -46.44961 | 3554 ft | 205 kts | 76° |
| 2026-05-08 21:34 | -23.42203 | -46.43413 | 4528 ft | 215 kts | 69° |
| 2026-05-08 21:34 | -23.41666 | -46.41771 | 4921 ft | 247 kts | 71° |
| 2026-05-08 21:34 | -23.41083 | -46.39916 | 5084 ft | 270 kts | 72° |
| 2026-05-08 21:34 | -23.40467 | -46.37895 | 5387 ft | 290 kts | 71° |
| 2026-05-08 21:35 | -23.39794 | -46.35837 | 6349 ft | 277 kts | 60° |
| 2026-05-08 21:35 | -23.38744 | -46.34120 | 7287 ft | 274 kts | 38° |
| 2026-05-08 21:35 | -23.37114 | -46.33171 | 8010 ft | 271 kts | 9° |
| 2026-05-08 21:35 | -23.35241 | -46.33158 | 8798 ft | 271 kts | 345° |
| 2026-05-08 21:36 | -23.33532 | -46.34016 | 9680 ft | 273 kts | 322° |
| 2026-05-08 21:36 | -23.32177 | -46.35494 | 10485 ft | 282 kts | 311° |
| 2026-05-08 21:36 | -23.30877 | -46.37219 | 10729 ft | 309 kts | 309° |
| 2026-05-08 21:36 | -23.29495 | -46.39136 | 10919 ft | 335 kts | 309° |
| 2026-05-08 21:37 | -23.28035 | -46.41183 | 11506 ft | 346 kts | 309° |
| 2026-05-08 21:37 | -23.26548 | -46.43261 | 12312 ft | 350 kts | 309° |
| 2026-05-08 21:37 | -23.25040 | -46.45355 | 13105 ft | 354 kts | 309° |
| 2026-05-08 21:37 | -23.24027 | -46.46754 | 13632 ft | 355 kts | 309° |
| 2026-05-08 21:38 | -23.22491 | -46.48868 | 14343 ft | 360 kts | 309° |
| 2026-05-08 21:38 | -23.20928 | -46.51010 | 15097 ft | 362 kts | 310° |
| 2026-05-08 21:38 | -23.19355 | -46.53166 | 15736 ft | 367 kts | 309° |
| 2026-05-08 21:38 | -23.17758 | -46.55350 | 16417 ft | 370 kts | 309° |
| 2026-05-08 21:39 | -23.16139 | -46.57544 | 17057 ft | 374 kts | 309° |
| 2026-05-08 21:39 | -23.14505 | -46.59761 | 17673 ft | 379 kts | 309° |
| 2026-05-08 21:39 | -23.12855 | -46.62014 | 18341 ft | 384 kts | 309° |
| 2026-05-08 21:39 | -23.11189 | -46.64277 | 19043 ft | 383 kts | 309° |
| 2026-05-08 21:40 | -23.09524 | -46.66548 | 19538 ft | 386 kts | 309° |
| 2026-05-08 21:40 | -23.07860 | -46.68816 | 19953 ft | 391 kts | 309° |
| 2026-05-08 21:40 | -23.06157 | -46.71134 | 20592 ft | 393 kts | 309° |
| 2026-05-08 21:41 | -23.02730 | -46.75791 | 21732 ft | 397 kts | 309° |
| 2026-05-08 21:41 | -23.00996 | -46.78128 | 22202 ft | 400 kts | 309° |
| 2026-05-08 21:41 | -22.99247 | -46.80492 | 22662 ft | 403 kts | 308° |
| 2026-05-08 21:41 | -22.97488 | -46.82880 | 23119 ft | 405 kts | 308° |
| 2026-05-08 21:42 | -22.95721 | -46.85277 | 23536 ft | 407 kts | 308° |
| 2026-05-08 21:42 | -22.93948 | -46.87690 | 23934 ft | 409 kts | 308° |
| 2026-05-08 21:42 | -22.92165 | -46.90110 | 24293 ft | 413 kts | 308° |
| 2026-05-08 21:42 | -22.90366 | -46.92535 | 24705 ft | 414 kts | 308° |
| 2026-05-08 21:43 | -22.88558 | -46.94969 | 25113 ft | 414 kts | 309° |
| 2026-05-08 21:43 | -22.86747 | -46.97420 | 25484 ft | 418 kts | 308° |
| 2026-05-08 21:43 | -22.84921 | -46.99887 | 25937 ft | 420 kts | 308° |
| 2026-05-08 21:43 | -22.83095 | -47.02357 | 26400 ft | 421 kts | 308° |
| 2026-05-08 21:44 | -22.81257 | -47.04833 | 26802 ft | 422 kts | 308° |
| 2026-05-08 21:44 | -22.79419 | -47.07321 | 27069 ft | 423 kts | 308° |
| 2026-05-08 21:44 | -22.77582 | -47.09824 | 27278 ft | 427 kts | 308° |
| 2026-05-08 21:44 | -22.75722 | -47.12292 | 27546 ft | 429 kts | 308° |
| 2026-05-08 21:45 | -22.73846 | -47.14812 | 27860 ft | 428 kts | 308° |
| 2026-05-08 21:45 | -22.71965 | -47.17335 | 28114 ft | 432 kts | 308° |
| 2026-05-08 21:45 | -22.70084 | -47.19851 | 28473 ft | 429 kts | 308° |
| 2026-05-08 21:45 | -22.68205 | -47.22380 | 28652 ft | 432 kts | 308° |
| 2026-05-08 21:46 | -22.66325 | -47.24924 | 28865 ft | 433 kts | 307° |
| 2026-05-08 21:46 | -22.64439 | -47.27490 | 29107 ft | 436 kts | 307° |
| 2026-05-08 21:46 | -22.63182 | -47.29180 | 29291 ft | 433 kts | 307° |
| 2026-05-08 21:46 | -22.60642 | -47.32576 | 29544 ft | 436 kts | 308° |
| 2026-05-08 21:47 | -22.59376 | -47.34267 | 29777 ft | 436 kts | 307° |
| 2026-05-08 21:47 | -22.57487 | -47.36818 | 30384 ft | 430 kts | 307° |
| 2026-05-08 21:47 | -22.55012 | -47.40133 | 30926 ft | 423 kts | 308° |
| 2026-05-08 21:47 | -22.53137 | -47.42618 | 30980 ft | 430 kts | 307° |
| 2026-05-08 21:48 | -22.51250 | -47.45142 | 31197 ft | 432 kts | 307° |
| 2026-05-08 21:48 | -22.49976 | -47.46843 | 31601 ft | 430 kts | 307° |
| 2026-05-08 21:48 | -22.48116 | -47.49336 | 32235 ft | 423 kts | 306° |
| 2026-05-08 21:48 | -22.46282 | -47.51820 | 32648 ft | 423 kts | 308° |
| 2026-05-08 21:49 | -22.44137 | -47.54021 | 32924 ft | 431 kts | 321° |
| 2026-05-08 21:49 | -22.41581 | -47.55704 | 33472 ft | 430 kts | 329° |
| 2026-05-08 21:49 | -22.38798 | -47.56938 | 33901 ft | 435 kts | 338° |
| 2026-05-08 21:49 | -22.35839 | -47.57618 | 34220 ft | 443 kts | 345° |
| 2026-05-08 21:50 | -22.32789 | -47.58113 | 34565 ft | 443 kts | 346° |
| 2026-05-08 21:50 | -22.29723 | -47.58571 | 34859 ft | 444 kts | 346° |
| 2026-05-08 21:50 | -22.26656 | -47.59030 | 35204 ft | 445 kts | 346° |
| 2026-05-08 21:50 | -22.23605 | -47.59511 | 35481 ft | 446 kts | 345° |
| 2026-05-08 21:51 | -22.20547 | -47.59980 | 35899 ft | 441 kts | 345° |
| 2026-05-08 21:51 | -22.17501 | -47.60472 | 35925 ft | 441 kts | 345° |
| 2026-05-08 21:51 | -22.11411 | -47.61474 | 35973 ft | 447 kts | 346° |
| 2026-05-08 21:52 | -22.05247 | -47.62500 | 35993 ft | 455 kts | 345° |
| 2026-05-08 21:52 | -21.98952 | -47.63586 | 35995 ft | 459 kts | 345° |
| 2026-05-08 21:53 | -21.92622 | -47.64657 | 35991 ft | 461 kts | 345° |
| 2026-05-08 21:53 | -21.86274 | -47.65717 | 35989 ft | 462 kts | 345° |
| 2026-05-08 21:54 | -21.79926 | -47.66776 | 35990 ft | 461 kts | 345° |
| 2026-05-08 21:54 | -21.73590 | -47.67833 | 35988 ft | 460 kts | 345° |
| 2026-05-08 21:55 | -21.67274 | -47.68888 | 35993 ft | 459 kts | 345° |
| 2026-05-08 21:56 | -21.57845 | -47.70455 | 35980 ft | 458 kts | 345° |
| 2026-05-08 21:56 | -21.51544 | -47.71491 | 35986 ft | 458 kts | 345° |
| 2026-05-08 21:57 | -21.45243 | -47.72526 | 35978 ft | 458 kts | 345° |
| 2026-05-08 21:57 | -21.38935 | -47.73563 | 35978 ft | 459 kts | 345° |
| 2026-05-08 21:58 | -21.32620 | -47.74600 | 35973 ft | 459 kts | 346° |
| 2026-05-08 21:58 | -21.26294 | -47.75636 | 35970 ft | 460 kts | 346° |
| 2026-05-08 21:59 | -21.19964 | -47.76672 | 35974 ft | 460 kts | 346° |
| 2026-05-08 21:59 | -21.13670 | -47.77701 | 35964 ft | 461 kts | 346° |
| 2026-05-08 22:00 | -21.07292 | -47.78606 | 35965 ft | 463 kts | 347° |
| 2026-05-08 22:00 | -21.00885 | -47.79452 | 35961 ft | 464 kts | 347° |
| 2026-05-08 22:01 | -20.94468 | -47.80310 | 35973 ft | 464 kts | 347° |
| 2026-05-08 22:01 | -20.88088 | -47.81176 | 35979 ft | 465 kts | 347° |
| 2026-05-08 22:02 | -20.81654 | -47.82053 | 35967 ft | 466 kts | 347° |
| 2026-05-08 22:02 | -20.75210 | -47.82912 | 35971 ft | 467 kts | 347° |
| 2026-05-08 22:03 | -20.68756 | -47.83810 | 35984 ft | 469 kts | 347° |
| 2026-05-08 22:03 | -20.62267 | -47.84699 | 35993 ft | 469 kts | 347° |
| 2026-05-08 22:04 | -20.55762 | -47.85536 | 35995 ft | 470 kts | 347° |
| 2026-05-08 22:04 | -20.49260 | -47.86431 | 35990 ft | 471 kts | 348° |
| 2026-05-08 22:05 | -20.42766 | -47.87323 | 36008 ft | 468 kts | 347° |
| 2026-05-08 22:05 | -20.36339 | -47.88206 | 36017 ft | 470 kts | 347° |
| 2026-05-08 22:06 | -20.29821 | -47.89138 | 36012 ft | 472 kts | 347° |
| 2026-05-08 22:06 | -20.23297 | -47.89998 | 36027 ft | 473 kts | 348° |
| 2026-05-08 22:07 | -20.16773 | -47.90851 | 36034 ft | 470 kts | 347° |
| 2026-05-08 22:07 | -20.10337 | -47.91727 | 36049 ft | 466 kts | 347° |
| 2026-05-08 22:08 | -20.03876 | -47.92607 | 36034 ft | 470 kts | 347° |
| 2026-05-08 22:08 | -19.97378 | -47.93485 | 36053 ft | 471 kts | 347° |
| 2026-05-08 22:09 | -19.90862 | -47.94368 | 36056 ft | 473 kts | 347° |
| 2026-05-08 22:09 | -19.84295 | -47.95234 | 36019 ft | 476 kts | 347° |
| 2026-05-08 22:10 | -19.77759 | -47.96101 | 36033 ft | 471 kts | 347° |
| 2026-05-08 22:10 | -19.71233 | -47.97013 | 36057 ft | 472 kts | 347° |
| 2026-05-08 22:11 | -19.64727 | -47.97889 | 36045 ft | 471 kts | 347° |
| 2026-05-08 22:11 | -19.58261 | -47.98743 | 36054 ft | 471 kts | 347° |
| 2026-05-08 22:12 | -19.51768 | -47.99609 | 36058 ft | 470 kts | 347° |
| 2026-05-08 22:12 | -19.45281 | -48.00479 | 36056 ft | 470 kts | 347° |
| 2026-05-08 22:13 | -19.38779 | -48.01351 | 36050 ft | 470 kts | 347° |
| 2026-05-08 22:13 | -19.32281 | -48.02221 | 36056 ft | 471 kts | 347° |
| 2026-05-08 22:14 | -19.25786 | -48.03110 | 36059 ft | 470 kts | 347° |
| 2026-05-08 22:14 | -19.19295 | -48.04037 | 36068 ft | 470 kts | 347° |
| 2026-05-08 22:15 | -19.12809 | -48.04961 | 36068 ft | 471 kts | 347° |
| 2026-05-08 22:15 | -19.06303 | -48.05882 | 36071 ft | 471 kts | 347° |
| 2026-05-08 22:16 | -18.99795 | -48.06801 | 36071 ft | 471 kts | 347° |
| 2026-05-08 22:16 | -18.96573 | -48.07257 | 35462 ft | 474 kts | 347° |
| 2026-05-08 22:16 | -18.93319 | -48.07716 | 34697 ft | 472 kts | 348° |
| 2026-05-08 22:16 | -18.90076 | -48.08297 | 33790 ft | 470 kts | 342° |
| 2026-05-08 22:17 | -18.86972 | -48.09331 | 32870 ft | 466 kts | 336° |
| 2026-05-08 22:17 | -18.83921 | -48.10512 | 31910 ft | 467 kts | 336° |
| 2026-05-08 22:17 | -18.80875 | -48.11720 | 30935 ft | 468 kts | 336° |
| 2026-05-08 22:17 | -18.77837 | -48.12922 | 30274 ft | 463 kts | 336° |
| 2026-05-08 22:18 | -18.74833 | -48.14095 | 29546 ft | 458 kts | 337° |
| 2026-05-08 22:18 | -18.71859 | -48.15244 | 28831 ft | 453 kts | 337° |
| 2026-05-08 22:18 | -18.68911 | -48.16373 | 28114 ft | 448 kts | 338° |
| 2026-05-08 22:18 | -18.65993 | -48.17485 | 27408 ft | 443 kts | 338° |
| 2026-05-08 22:19 | -18.63100 | -48.18586 | 26702 ft | 439 kts | 338° |
| 2026-05-08 22:19 | -18.60244 | -48.19673 | 26001 ft | 434 kts | 339° |
| 2026-05-08 22:19 | -18.57421 | -48.20747 | 25305 ft | 429 kts | 339° |
| 2026-05-08 22:19 | -18.54626 | -48.21810 | 24610 ft | 425 kts | 339° |
| 2026-05-08 22:20 | -18.51888 | -48.22852 | 23927 ft | 420 kts | 339° |
| 2026-05-08 22:20 | -18.49151 | -48.23893 | 23242 ft | 416 kts | 340° |
| 2026-05-08 22:20 | -18.46441 | -48.24923 | 22555 ft | 412 kts | 340° |
| 2026-05-08 22:20 | -18.43754 | -48.25944 | 21873 ft | 408 kts | 340° |
| 2026-05-08 22:21 | -18.41092 | -48.26955 | 21197 ft | 404 kts | 340° |
| 2026-05-08 22:21 | -18.38460 | -48.27955 | 20517 ft | 401 kts | 340° |
| 2026-05-08 22:21 | -18.35840 | -48.28950 | 19840 ft | 397 kts | 340° |
| 2026-05-08 22:21 | -18.33256 | -48.29931 | 19171 ft | 394 kts | 340° |
| 2026-05-08 22:22 | -18.30686 | -48.30907 | 18506 ft | 390 kts | 340° |
| 2026-05-08 22:22 | -18.28145 | -48.31870 | 17842 ft | 386 kts | 340° |
| 2026-05-08 22:22 | -18.25630 | -48.32823 | 17187 ft | 382 kts | 339° |
| 2026-05-08 22:22 | -18.23245 | -48.34017 | 16535 ft | 379 kts | 328° |
| 2026-05-08 22:23 | -18.21127 | -48.35659 | 15899 ft | 375 kts | 319° |
| 2026-05-08 22:23 | -18.19333 | -48.37627 | 15267 ft | 371 kts | 309° |
| 2026-05-08 22:23 | -18.17754 | -48.39718 | 14649 ft | 367 kts | 308° |
| 2026-05-08 22:23 | -18.16186 | -48.41830 | 14017 ft | 364 kts | 308° |
| 2026-05-08 22:24 | -18.14637 | -48.43921 | 13388 ft | 361 kts | 308° |
| 2026-05-08 22:24 | -18.13099 | -48.45986 | 12756 ft | 356 kts | 309° |
| 2026-05-08 22:24 | -18.11574 | -48.48027 | 12147 ft | 353 kts | 309° |
| 2026-05-08 22:24 | -18.10061 | -48.50042 | 11525 ft | 349 kts | 309° |
| 2026-05-08 22:25 | -18.08560 | -48.52038 | 10911 ft | 346 kts | 309° |
| 2026-05-08 22:25 | -18.07089 | -48.53991 | 10653 ft | 332 kts | 309° |
| 2026-05-08 22:25 | -18.05682 | -48.55858 | 10493 ft | 318 kts | 309° |
| 2026-05-08 22:25 | -18.04340 | -48.57637 | 10344 ft | 304 kts | 309° |
| 2026-05-08 22:26 | -18.03052 | -48.59344 | 10210 ft | 291 kts | 309° |
| 2026-05-08 22:26 | -18.01820 | -48.60978 | 10087 ft | 279 kts | 309° |
| 2026-05-08 22:26 | -18.00623 | -48.62562 | 9761 ft | 276 kts | 310° |
| 2026-05-08 22:26 | -17.99453 | -48.64111 | 9437 ft | 272 kts | 310° |
| 2026-05-08 22:27 | -17.98275 | -48.65668 | 9076 ft | 272 kts | 310° |
| 2026-05-08 22:27 | -17.97100 | -48.67223 | 8719 ft | 271 kts | 310° |
| 2026-05-08 22:27 | -17.95931 | -48.68770 | 8362 ft | 270 kts | 310° |
| 2026-05-08 22:27 | -17.94767 | -48.70311 | 7997 ft | 268 kts | 310° |
| 2026-05-08 22:28 | -17.93607 | -48.71845 | 7639 ft | 267 kts | 310° |
| 2026-05-08 22:28 | -17.92457 | -48.73363 | 7278 ft | 266 kts | 310° |
| 2026-05-08 22:28 | -17.91307 | -48.74885 | 6917 ft | 265 kts | 310° |
| 2026-05-08 22:28 | -17.90105 | -48.76316 | 6736 ft | 256 kts | 323° |
| 2026-05-08 22:29 | -17.88546 | -48.77092 | 6577 ft | 245 kts | 345° |
| 2026-05-08 22:29 | -17.86875 | -48.77311 | 6403 ft | 238 kts | 356° |
| 2026-05-08 22:29 | -17.85271 | -48.77400 | 6275 ft | 229 kts | 356° |
| 2026-05-08 22:29 | -17.83711 | -48.77487 | 6165 ft | 220 kts | 356° |
| 2026-05-08 22:30 | -17.82217 | -48.77574 | 6035 ft | 212 kts | 356° |
| 2026-05-08 22:30 | -17.80750 | -48.77561 | 5785 ft | 211 kts | 12° |
| 2026-05-08 22:30 | -17.79485 | -48.76821 | 5574 ft | 207 kts | 43° |
| 2026-05-08 22:30 | -17.78713 | -48.75569 | 5314 ft | 201 kts | 64° |
| 2026-05-08 22:31 | -17.78163 | -48.74261 | 5111 ft | 192 kts | 66° |
| 2026-05-08 22:31 | -17.77644 | -48.73007 | 4892 ft | 182 kts | 68° |
| 2026-05-08 22:31 | -17.77158 | -48.71812 | 4639 ft | 172 kts | 70° |
| 2026-05-08 22:31 | -17.76707 | -48.70708 | 4446 ft | 156 kts | 64° |
| 2026-05-08 22:32 | -17.76288 | -48.69697 | 4209 ft | 145 kts | 64° |
| 2026-05-08 22:32 | -17.76019 | -48.69051 | 4074 ft | 147 kts | 64° |
| 2026-05-08 22:32 | -17.75478 | -48.67755 | 3764 ft | 145 kts | 64° |
| 2026-05-08 22:32 | -17.75076 | -48.66792 | 3541 ft | 143 kts | 64° |
| 2026-05-08 22:33 | -17.74678 | -48.65836 | 3338 ft | 144 kts | 64° |
| 2026-05-08 22:33 | -17.74288 | -48.64894 | 3127 ft | 139 kts | 64° |
| 2026-05-08 22:33 | -17.74022 | -48.64265 | 2947 ft | 139 kts | 64° |
| 2026-05-08 22:33 | -17.73508 | -48.63040 | 2692 ft | 139 kts | 64° |
| 2026-05-08 22:34 | -17.73250 | -48.62413 | 2547 ft | 139 kts | 63° |
| 2026-05-08 22:34 | -17.72870 | -48.61499 | 2348 ft | 137 kts | 66° |
| 2026-05-08 22:34 | -17.72523 | -48.60674 | 2296 ft | 98 kts | 69° |
| 2026-05-08 22:34 | -17.72340 | -48.60230 | 2278 ft | 35 kts | 66° |
| 2026-05-08 22:35 | -17.72260 | -48.60040 | 2273 ft | 28 kts | 66° |
| 2026-05-08 22:35 | -17.72183 | -48.59855 | 2265 ft | 20 kts | 65° |
| 2026-05-08 22:35 | -17.72111 | -48.59762 | 2261 ft | 14 kts | 100° |
| 2026-05-08 22:35 | -17.72163 | -48.59794 | 2263 ft | 13 kts | 254° |
| 2026-05-08 22:36 | -17.72199 | -48.59884 | 2266 ft | 14 kts | 245° |
| 2026-05-08 22:36 | -17.72237 | -48.59976 | 2270 ft | 14 kts | 247° |
| 2026-05-08 22:36 | -17.72272 | -48.60066 | 2274 ft | 13 kts | 248° |
| 2026-05-08 22:36 | -17.72324 | -48.60193 | 2277 ft | 25 kts | 246° |
| 2026-05-08 22:37 | -17.72401 | -48.60376 | 2282 ft | 27 kts | 246° |
| 2026-05-08 22:37 | -17.72475 | -48.60553 | 2288 ft | 26 kts | 246° |
| 2026-05-08 22:37 | -17.72543 | -48.60717 | 2298 ft | 24 kts | 246° |
| 2026-05-08 22:37 | -17.72607 | -48.60871 | 2295 ft | 23 kts | 246° |
| 2026-05-08 22:38 | -17.72669 | -48.61021 | 2307 ft | 22 kts | 246° |
| 2026-05-08 22:38 | -17.72730 | -48.61165 | 2307 ft | 21 kts | 246° |
| 2026-05-08 22:38 | -17.72788 | -48.61303 | 2315 ft | 17 kts | 247° |
| 2026-05-08 22:38 | -17.72756 | -48.61376 | 2314 ft | 12 kts | 332° |
| 2026-05-08 22:39 | -17.72685 | -48.61410 | 2313 ft | 10 kts | 338° |
| 2026-05-08 22:39 | -17.72629 | -48.61412 | 2311 ft | 8 kts | 359° |
| 2026-05-08 22:39 | -17.72593 | -48.61425 | 2310 ft | 2 kts | 335° |
| 2026-05-08 22:39 | -17.72582 | -48.61430 | 2311 ft | 0 kts | 336° |